createdAt,value
2022-12-05T00:00:15.025Z,97672.34
2022-12-05T00:02:46.740Z,97678.25
2022-12-05T00:05:15.819Z,97695.16
2022-12-05T00:07:44.185Z,97689.28
2022-12-05T00:10:13.330Z,97695.22
2022-12-05T00:12:42.168Z,97685.03
2022-12-05T00:15:13.166Z,97690.19
2022-12-05T00:17:44.951Z,97696.16
2022-12-05T00:20:15.409Z,97707.06
2022-12-05T00:22:44.281Z,97702.13
2022-12-05T00:25:13.546Z,97706.28
2022-12-05T00:27:42.272Z,97709.69
2022-12-05T00:30:11.575Z,97700.38
2022-12-05T00:32:40.844Z,97713.06
2022-12-05T00:35:12.846Z,97708.84
2022-12-05T00:37:42.963Z,97712.22
2022-12-05T00:40:13.715Z,97719.03
2022-12-05T00:42:45.010Z,97717.31
2022-12-05T00:45:16.779Z,97703.75
2022-12-05T00:47:45.740Z,97724.84
2022-12-05T00:50:17.128Z,97716.44
2022-12-05T00:52:45.774Z,97722.25
2022-12-05T00:55:14.561Z,97709.59
2022-12-05T00:57:43.995Z,97728.94
2022-12-05T01:00:13.693Z,97730.72
2022-12-05T01:02:42.520Z,97740.09
2022-12-05T01:05:12.427Z,97732.47
2022-12-05T01:07:43.578Z,97747.78
2022-12-05T01:10:12.569Z,97745.28
2022-12-05T01:12:41.111Z,97752.88
2022-12-05T01:15:11.864Z,97750.31
2022-12-05T01:17:41.432Z,97750.31
2022-12-05T01:20:10.851Z,97747.78
2022-12-05T01:22:40.140Z,97751.16
2022-12-05T01:25:13.614Z,97757.91
2022-12-05T01:27:43.288Z,97762.16
2022-12-05T01:30:12.810Z,97746.97
2022-12-05T01:32:41.798Z,97763.09
2022-12-05T01:35:11.509Z,97761.38
2022-12-05T01:37:40.571Z,97768.16
2022-12-05T01:40:12.222Z,97769.81
2022-12-05T01:42:41.207Z,97774.09
2022-12-05T01:45:16.196Z,97774.06
2022-12-05T01:47:45.749Z,97785.16
2022-12-05T01:50:14.974Z,97790.28
2022-12-05T01:52:43.769Z,97781.81
2022-12-05T01:55:19.033Z,97800.41
2022-12-05T01:57:49.235Z,97788.69
2022-12-05T02:00:20.584Z,97798.81
2022-12-05T02:02:54.143Z,97814.97
2022-12-05T02:05:25.444Z,97810.72
2022-12-05T02:07:54.883Z,97813.25
2022-12-05T02:10:25.776Z,97797.97
2022-12-05T02:12:55.031Z,97804.78
2022-12-05T02:15:39.006Z,97797.22
2022-12-05T02:18:25.275Z,97804.03
2022-12-05T02:21:14.943Z,97820.97
2022-12-05T02:24:02.163Z,97824.31
2022-12-05T02:26:49.934Z,97833.69
2022-12-05T02:29:55.039Z,97837.06
2022-12-05T02:32:36.572Z,97835.34
2022-12-05T02:35:15.253Z,97841.34
2022-12-05T02:37:53.823Z,97844.69
2022-12-05T02:40:28.160Z,97847.31
2022-12-05T02:43:02.058Z,97843.09
2022-12-05T02:45:35.775Z,97837.19
2022-12-05T02:48:05.974Z,97845.69
2022-12-05T02:50:37.686Z,97847.34
2022-12-05T02:53:10.940Z,97850.72
2022-12-05T02:55:41.676Z,97848.28
2022-12-05T02:58:23.658Z,97863.53
2022-12-05T03:00:59.941Z,97863.56
2022-12-05T03:03:28.770Z,97868.59
2022-12-05T03:06:05.025Z,97882.22
2022-12-05T03:08:39.308Z,97877.06
2022-12-05T03:11:08.660Z,97883.06
2022-12-05T03:13:42.797Z,97874.63
2022-12-05T03:16:20.251Z,97883.97
2022-12-05T03:18:56.453Z,97883.97
2022-12-05T03:21:33.750Z,97890.78
2022-12-05T03:24:05.328Z,97893.31
2022-12-05T03:26:48.485Z,97879.78
2022-12-05T03:29:26.415Z,97864.53
2022-12-05T03:32:05.605Z,97852.66
2022-12-05T03:34:49.949Z,97844.16
2022-12-05T03:37:22.764Z,97839.94
2022-12-05T03:40:02.448Z,97853.47
2022-12-05T03:42:35.325Z,97876.44
2022-12-05T03:45:10.051Z,97884.09
2022-12-05T03:47:47.758Z,97884.94
2022-12-05T03:50:23.077Z,97880.69
2022-12-05T03:53:19.228Z,97876.41
2022-12-05T03:55:51.105Z,97887.41
2022-12-05T03:58:27.940Z,97887.44
2022-12-05T04:00:59.001Z,97901.03
2022-12-05T04:03:45.420Z,97906.13
2022-12-05T04:06:20.695Z,97909.50
2022-12-05T04:08:53.767Z,97919.72
2022-12-05T04:11:27.333Z,97919.78
2022-12-05T04:14:01.712Z,97927.44
2022-12-05T04:16:52.401Z,97923.16
2022-12-05T04:19:50.486Z,97937.59
2022-12-05T04:22:19.253Z,97946.13
2022-12-05T04:25:05.992Z,97938.50
2022-12-05T04:27:42.902Z,97941.91
2022-12-05T04:30:16.224Z,97948.66
2022-12-05T04:32:48.752Z,97956.34
2022-12-05T04:35:22.849Z,97947.06
2022-12-05T04:37:55.227Z,97953.81
2022-12-05T04:40:30.625Z,97958.94
2022-12-05T04:43:02.590Z,97961.50
2022-12-05T04:45:33.088Z,97956.38
2022-12-05T04:48:08.923Z,97964.84
2022-12-05T04:50:41.415Z,97958.97
2022-12-05T04:53:12.333Z,97968.28
2022-12-05T04:55:45.041Z,97972.53
2022-12-05T04:58:16.986Z,97958.09
2022-12-05T05:00:52.583Z,97970.81
2022-12-05T05:03:26.005Z,97966.56
2022-12-05T05:05:57.800Z,97981.00
2022-12-05T05:08:29.664Z,97971.69
2022-12-05T05:11:08.787Z,97971.69
2022-12-05T05:13:39.784Z,97982.72
2022-12-05T05:16:10.605Z,97982.69
2022-12-05T05:18:39.676Z,97981.00
2022-12-05T05:21:17.683Z,97993.72
2022-12-05T05:23:46.673Z,97981.88
2022-12-05T05:26:16.283Z,97996.28
2022-12-05T05:28:45.199Z,97995.41
2022-12-05T05:31:14.409Z,97996.25
2022-12-05T05:33:43.381Z,97987.81
2022-12-05T05:36:15.760Z,97991.16
2022-12-05T05:38:46.592Z,97987.81
2022-12-05T05:41:16.892Z,97990.34
2022-12-05T05:43:46.010Z,97998.81
2022-12-05T05:46:16.603Z,97996.28
2022-12-05T05:48:45.704Z,97999.69
2022-12-05T05:51:18.650Z,97993.75
2022-12-05T05:53:47.464Z,97987.81
2022-12-05T05:56:21.470Z,98002.22
2022-12-05T05:58:56.611Z,98003.91
2022-12-05T06:01:25.592Z,98003.06
2022-12-05T06:03:55.990Z,98010.72
2022-12-05T06:06:27.263Z,98014.09
2022-12-05T06:08:56.202Z,98008.16
2022-12-05T06:11:27.718Z,98006.47
2022-12-05T06:13:57.835Z,98020.88
2022-12-05T06:16:28.494Z,98023.41
2022-12-05T06:18:57.172Z,98013.22
2022-12-05T06:21:27.608Z,98029.31
2022-12-05T06:23:56.621Z,98030.16
2022-12-05T06:26:25.766Z,98029.31
2022-12-05T06:28:55.675Z,98033.56
2022-12-05T06:31:27.404Z,98042.03
2022-12-05T06:33:56.885Z,98040.31
2022-12-05T06:36:28.952Z,98019.06
2022-12-05T06:38:58.979Z,98043.66
2022-12-05T06:41:29.219Z,98049.63
2022-12-05T06:44:02.482Z,98055.56
2022-12-05T06:46:33.359Z,98047.94
2022-12-05T06:49:02.227Z,98053.84
2022-12-05T06:51:32.727Z,98054.69
2022-12-05T06:54:01.322Z,98067.41
2022-12-05T06:56:30.836Z,98072.47
2022-12-05T06:58:59.454Z,98065.72
2022-12-05T07:01:43.207Z,98074.22
2022-12-05T07:04:17.779Z,98065.72
2022-12-05T07:06:51.823Z,98063.97
2022-12-05T07:09:22.214Z,98069.09
2022-12-05T07:11:52.903Z,98066.53
2022-12-05T07:17:11.111Z,98071.59
2022-12-05T07:19:41.334Z,98079.22
2022-12-05T07:22:15.646Z,98087.66
2022-12-05T07:24:45.489Z,98082.59
2022-12-05T07:27:15.642Z,98091.09
2022-12-05T07:29:45.396Z,98099.56
2022-12-05T07:32:15.757Z,98098.69
2022-12-05T07:34:44.552Z,98106.34
2022-12-05T07:37:15.222Z,98099.59
2022-12-05T07:39:45.092Z,98092.78
2022-12-05T07:42:14.415Z,98102.13
2022-12-05T07:44:43.800Z,98094.47
2022-12-05T07:47:13.093Z,98115.72
2022-12-05T07:49:43.131Z,98119.94
2022-12-05T07:52:12.993Z,98123.31
2022-12-05T07:54:44.548Z,98134.38
2022-12-05T07:57:14.298Z,98126.75
2022-12-05T07:59:43.650Z,98130.13
2022-12-05T08:02:12.166Z,98130.16
2022-12-05T08:04:41.417Z,98124.19
2022-12-05T08:07:12.573Z,98119.94
2022-12-05T08:09:45.039Z,98120.78
2022-12-05T08:12:14.245Z,98123.38
2022-12-05T08:14:43.069Z,98131.00
2022-12-05T08:17:11.952Z,98124.22
2022-12-05T08:19:41.378Z,98108.13
2022-12-05T08:22:10.031Z,98128.50
2022-12-05T08:24:39.026Z,98128.53
2022-12-05T08:27:09.753Z,98137.84
2022-12-05T08:29:38.674Z,98123.41
2022-12-05T08:32:07.460Z,98133.66
2022-12-05T08:34:36.788Z,98140.44
2022-12-05T08:37:06.853Z,98146.34
2022-12-05T08:39:38.929Z,98136.22
2022-12-05T08:42:10.583Z,98136.19
2022-12-05T08:44:39.291Z,98135.34
2022-12-05T08:47:08.248Z,98153.19
2022-12-05T08:49:37.797Z,98151.50
2022-12-05T08:52:06.463Z,98170.19
2022-12-05T08:54:35.260Z,98159.16
2022-12-05T08:57:04.642Z,98169.34
2022-12-05T08:59:36.738Z,98175.28
2022-12-05T09:02:05.693Z,98182.09
2022-12-05T09:04:34.671Z,98193.09
2022-12-05T09:07:03.993Z,98184.56
2022-12-05T09:09:37.376Z,98199.84
2022-12-05T09:12:07.275Z,98201.53
2022-12-05T09:14:37.905Z,98204.91
2022-12-05T09:17:09.105Z,98209.19
2022-12-05T09:19:37.904Z,98204.94
2022-12-05T09:22:07.781Z,98214.28
2022-12-05T09:24:37.210Z,98221.06
2022-12-05T09:27:06.936Z,98221.03
2022-12-05T09:29:38.138Z,98216.81
2022-12-05T09:32:08.685Z,98217.69
2022-12-05T09:34:39.592Z,98201.53
2022-12-05T09:37:30.818Z,98220.25
2022-12-05T09:39:58.291Z,98215.13
2022-12-05T09:42:39.312Z,98218.56
2022-12-05T09:45:26.994Z,98212.63
2022-12-05T09:48:03.434Z,98216.84
2022-12-05T09:50:41.564Z,98193.09
2022-12-05T09:53:21.134Z,98207.53
2022-12-05T09:55:55.088Z,98209.22
2022-12-05T09:58:43.750Z,98199.03
2022-12-05T10:01:26.650Z,98204.97
2022-12-05T10:04:07.981Z,98203.25
2022-12-05T10:06:42.984Z,98204.97
2022-12-05T10:09:28.445Z,98204.13
2022-12-05T10:12:05.375Z,98204.13
2022-12-05T10:14:42.598Z,98201.56
2022-12-05T10:17:21.880Z,98206.69
2022-12-05T10:19:54.815Z,98212.66
2022-12-05T10:22:30.569Z,98198.22
2022-12-05T10:25:05.455Z,98197.38
2022-12-05T10:27:40.218Z,98203.28
2022-12-05T10:30:17.352Z,98206.69
2022-12-05T10:32:54.809Z,98199.91
2022-12-05T10:35:25.500Z,98203.28
2022-12-05T10:37:56.755Z,98192.25
2022-12-05T10:40:29.466Z,98198.22
2022-12-05T10:42:58.685Z,98213.50
2022-12-05T10:45:28.300Z,98208.41
2022-12-05T10:48:00.456Z,98205.00
2022-12-05T10:50:35.697Z,98194.81
2022-12-05T10:53:06.848Z,98210.09
2022-12-05T10:55:39.319Z,98211.78
2022-12-05T10:58:18.072Z,98204.16
2022-12-05T11:00:59.721Z,98207.53
2022-12-05T11:03:36.362Z,98206.69
2022-12-05T11:06:20.205Z,98206.69
2022-12-05T11:09:04.725Z,98207.53
2022-12-05T11:11:35.736Z,98206.69
2022-12-05T11:14:06.441Z,98203.31
2022-12-05T11:16:38.934Z,98206.69
2022-12-05T11:19:28.621Z,98210.06
2022-12-05T11:21:58.075Z,98198.19
2022-12-05T11:24:29.924Z,98203.28
2022-12-05T11:27:01.545Z,98189.72
2022-12-05T11:29:34.059Z,98200.72
2022-12-05T11:32:04.296Z,98182.06
2022-12-05T11:34:46.702Z,98197.31
2022-12-05T11:37:22.292Z,98197.31
2022-12-05T11:39:51.391Z,98192.22
2022-12-05T11:42:39.319Z,98198.16
2022-12-05T11:45:40.758Z,98185.47
2022-12-05T11:48:23.381Z,98193.09
2022-12-05T11:51:10.823Z,98177.81
2022-12-05T11:53:57.624Z,98187.97
2022-12-05T11:56:37.776Z,98182.03
2022-12-05T11:59:29.726Z,98182.91
2022-12-05T12:02:11.276Z,98172.72
2022-12-05T12:04:52.216Z,98170.19
2022-12-05T12:07:33.180Z,98165.91
2022-12-05T12:10:16.016Z,98161.66
2022-12-05T12:12:55.092Z,98167.56
2022-12-05T12:15:53.291Z,98174.38
2022-12-05T12:18:41.616Z,98170.97
2022-12-05T12:21:20.180Z,98171.84
2022-12-05T12:24:07.217Z,98171.03
2022-12-05T12:26:48.696Z,98171.88
2022-12-05T12:29:32.786Z,98172.75
2022-12-05T12:32:20.902Z,98176.13
2022-12-05T12:35:25.662Z,98182.94
2022-12-05T12:38:13.043Z,98181.22
2022-12-05T12:40:50.326Z,98187.16
2022-12-05T12:46:44.974Z,98177.81
2022-12-05T12:49:36.609Z,98185.47
2022-12-05T12:52:14.062Z,98181.22
2022-12-05T12:55:04.009Z,98167.63
2022-12-05T12:57:51.703Z,98179.50
2022-12-05T13:00:30.267Z,98184.63
2022-12-05T13:03:11.340Z,98171.03
2022-12-05T13:05:44.581Z,98171.03
2022-12-05T13:08:18.295Z,98165.94
2022-12-05T13:10:49.777Z,98168.50
2022-12-05T13:13:24.179Z,98172.72
2022-12-05T13:15:55.675Z,98173.56
2022-12-05T13:18:27.599Z,98167.63
2022-12-05T13:20:59.139Z,98169.34
2022-12-05T13:23:31.329Z,98177.81
2022-12-05T13:26:01.936Z,98162.56
2022-12-05T13:28:43.119Z,98159.16
2022-12-05T13:31:17.023Z,98168.50
2022-12-05T13:33:47.530Z,98167.63
2022-12-05T13:36:35.695Z,98165.09
2022-12-05T13:39:24.461Z,98172.75
2022-12-05T13:42:16.121Z,98172.72
2022-12-05T13:44:51.350Z,98171.88
2022-12-05T13:47:28.799Z,98162.53
2022-12-05T13:50:04.542Z,98171.03
2022-12-05T13:52:34.961Z,98182.94
2022-12-05T13:55:13.131Z,98177.81
2022-12-05T13:57:52.827Z,98184.63
2022-12-05T14:00:35.482Z,98182.09
2022-12-05T14:03:16.226Z,98179.50
2022-12-05T14:05:54.550Z,98182.06
2022-12-05T14:09:01.712Z,98181.22
2022-12-05T14:11:38.370Z,98175.28
2022-12-05T14:14:34.066Z,98196.53
2022-12-05T14:17:29.639Z,98186.31
2022-12-05T14:20:20.923Z,98172.75
2022-12-05T14:23:11.039Z,98181.22
2022-12-05T14:26:10.330Z,98182.94
2022-12-05T14:29:56.367Z,98183.75
2022-12-05T14:32:40.125Z,98171.88
2022-12-05T14:35:15.829Z,98171.88
2022-12-05T14:37:53.007Z,98171.03
2022-12-05T14:40:30.437Z,98170.19
2022-12-05T14:43:01.802Z,98176.97
2022-12-05T14:45:34.784Z,98171.91
2022-12-05T14:48:08.490Z,98160.00
2022-12-05T14:50:46.818Z,98169.34
2022-12-05T14:53:26.805Z,98172.72
2022-12-05T14:55:58.447Z,98177.81
2022-12-05T14:58:35.948Z,98168.50
2022-12-05T15:01:09.545Z,98173.59
2022-12-05T15:03:44.491Z,98172.72
2022-12-05T15:06:18.906Z,98177.00
2022-12-05T15:08:55.007Z,98176.97
2022-12-05T15:11:30.446Z,98179.53
2022-12-05T15:14:07.886Z,98183.78
2022-12-05T15:16:40.879Z,98172.72
2022-12-05T15:19:19.463Z,98181.22
2022-12-05T15:21:52.192Z,98182.94
2022-12-05T15:24:21.656Z,98184.59
2022-12-05T15:26:52.480Z,98187.16
2022-12-05T15:29:27.874Z,98181.22
2022-12-05T15:31:59.372Z,98186.31
2022-12-05T15:34:36.171Z,98188.00
2022-12-05T15:37:17.891Z,98193.09
2022-12-05T15:39:57.641Z,98192.25
2022-12-05T15:42:30.108Z,98193.94
2022-12-05T15:45:21.895Z,98202.44
2022-12-05T15:47:52.503Z,98195.66
2022-12-05T15:50:30.595Z,98193.97
2022-12-05T15:53:03.110Z,98188.88
2022-12-05T15:55:38.766Z,98192.25
2022-12-05T15:58:17.966Z,98199.03
2022-12-05T16:00:52.200Z,98203.31
2022-12-05T16:03:26.343Z,98211.78
2022-12-05T16:06:02.316Z,98208.41
2022-12-05T16:08:41.612Z,98204.97
2022-12-05T16:11:11.587Z,98202.44
2022-12-05T16:13:46.156Z,98202.44
2022-12-05T16:16:19.187Z,98215.19
2022-12-05T16:18:58.645Z,98204.13
2022-12-05T16:21:39.113Z,98221.94
2022-12-05T16:24:11.306Z,98224.47
2022-12-05T16:26:41.839Z,98221.09
2022-12-05T16:29:28.816Z,98220.25
2022-12-05T16:31:59.387Z,98222.81
2022-12-05T16:34:30.962Z,98220.25
2022-12-05T16:37:02.593Z,98230.44
2022-12-05T16:39:33.179Z,98232.16
2022-12-05T16:42:02.428Z,98235.53
2022-12-05T16:45:02.694Z,98235.53
2022-12-05T16:47:56.425Z,98241.50
2022-12-05T16:50:32.191Z,98234.69
2022-12-05T16:53:18.295Z,98244.03
2022-12-05T16:55:47.997Z,98243.19
2022-12-05T16:58:23.958Z,98225.31
2022-12-05T17:00:53.287Z,98238.06
2022-12-05T17:03:37.524Z,98243.16
2022-12-05T17:06:06.380Z,98247.38
2022-12-05T17:08:36.570Z,98212.53
2022-12-05T17:11:07.345Z,98243.13
2022-12-05T17:13:36.756Z,98239.72
2022-12-05T17:16:05.869Z,98252.44
2022-12-05T17:18:36.876Z,98248.19
2022-12-05T17:21:06.078Z,98242.25
2022-12-05T17:23:36.937Z,98246.47
2022-12-05T17:26:05.727Z,98257.47
2022-12-05T17:28:36.301Z,98251.56
2022-12-05T17:31:06.137Z,98261.69
2022-12-05T17:33:40.111Z,98260.03
2022-12-05T17:36:10.086Z,98263.41
2022-12-05T17:38:41.853Z,98253.25
2022-12-05T17:41:57.304Z,98265.13
2022-12-05T17:44:27.632Z,98249.84
2022-12-05T17:46:56.563Z,98255.72
2022-12-05T17:49:25.899Z,98257.47
2022-12-05T17:52:21.007Z,98247.25
2022-12-05T17:54:46.653Z,98246.41
2022-12-05T17:57:16.874Z,98260.81
2022-12-05T17:59:46.064Z,98241.25
2022-12-05T18:02:15.711Z,98259.91
2022-12-05T18:04:44.608Z,98252.28
2022-12-05T18:07:15.154Z,98250.56
2022-12-05T18:09:44.118Z,98248.03
2022-12-05T18:12:14.624Z,98245.50
2022-12-05T18:14:43.380Z,98247.16
2022-12-05T18:17:13.151Z,98244.59
2022-12-05T18:19:41.945Z,98251.38
2022-12-05T18:22:11.729Z,98247.16
2022-12-05T18:24:41.191Z,98249.66
2022-12-05T18:27:12.194Z,98237.81
2022-12-05T18:29:43.102Z,98246.28
2022-12-05T18:32:14.543Z,98267.47
2022-12-05T18:34:43.731Z,98254.81
2022-12-05T18:37:16.880Z,98259.00
2022-12-05T18:39:45.851Z,98260.72
2022-12-05T18:42:15.411Z,98258.16
2022-12-05T18:44:46.124Z,98260.72
2022-12-05T18:47:16.201Z,98256.50
2022-12-05T18:49:45.249Z,98265.00
2022-12-05T18:52:14.958Z,98261.59
2022-12-05T18:54:45.983Z,98270.06
2022-12-05T18:57:21.005Z,98271.78
2022-12-05T18:59:53.228Z,98259.00
2022-12-05T19:02:25.247Z,98272.63
2022-12-05T19:04:55.660Z,98274.28
2022-12-05T19:07:25.122Z,98274.31
2022-12-05T19:09:54.386Z,98265.78
2022-12-05T19:12:23.333Z,98289.56
2022-12-05T19:14:54.683Z,98275.16
2022-12-05T19:17:25.011Z,98271.78
2022-12-05T19:19:54.651Z,98275.16
2022-12-05T19:22:24.854Z,98278.53
2022-12-05T19:24:53.627Z,98284.50
2022-12-05T19:27:22.616Z,98270.94
2022-12-05T19:29:53.411Z,98272.63
2022-12-05T19:32:23.947Z,98259.94
2022-12-05T19:34:52.904Z,98278.63
2022-12-05T19:37:23.064Z,98276.91
2022-12-05T19:39:52.044Z,98270.09
2022-12-05T19:42:22.382Z,98274.34
2022-12-05T19:44:53.118Z,98271.78
2022-12-05T19:47:23.763Z,98271.81
2022-12-05T19:49:52.663Z,98264.16
2022-12-05T19:52:22.629Z,98278.59
2022-12-05T19:54:51.878Z,98277.72
2022-12-05T19:57:20.624Z,98279.44
2022-12-05T19:59:50.039Z,98273.50
2022-12-05T20:02:18.750Z,98276.97
2022-12-05T20:04:51.513Z,98288.81
2022-12-05T20:07:20.604Z,98278.63
2022-12-05T20:09:49.602Z,98287.97
2022-12-05T20:12:19.774Z,98274.31
2022-12-05T20:14:48.960Z,98286.25
2022-12-05T20:17:18.546Z,98282.84
2022-12-05T20:19:46.759Z,98267.53
2022-12-05T20:22:17.244Z,98262.44
2022-12-05T20:24:46.349Z,98271.81
2022-12-05T20:27:15.658Z,98263.31
2022-12-05T20:29:45.885Z,98265.88
2022-12-05T20:32:21.542Z,98260.81
2022-12-05T20:34:50.348Z,98265.06
2022-12-05T20:37:21.339Z,98263.34
2022-12-05T20:39:51.094Z,98262.44
2022-12-05T20:42:21.131Z,98253.09
2022-12-05T20:44:49.837Z,98258.16
2022-12-05T20:47:18.721Z,98253.91
2022-12-05T20:49:47.861Z,98262.38
2022-12-05T20:52:20.512Z,98255.63
2022-12-05T20:54:50.323Z,98259.03
2022-12-05T20:57:18.917Z,98242.09
2022-12-05T20:59:48.276Z,98242.06
2022-12-05T21:02:19.368Z,98231.88
2022-12-05T21:04:48.323Z,98231.88
2022-12-05T21:07:17.084Z,98226.81
2022-12-05T21:09:45.879Z,98216.56
2022-12-05T21:12:17.186Z,98233.56
2022-12-05T21:14:46.312Z,98240.28
2022-12-05T21:17:17.457Z,98239.50
2022-12-05T21:19:46.224Z,98235.22
2022-12-05T21:22:20.014Z,98238.59
2022-12-05T21:24:49.771Z,98232.59
2022-12-05T21:27:21.177Z,98240.22
2022-12-05T21:29:50.050Z,98247.03
2022-12-05T21:32:21.147Z,98243.66
2022-12-05T21:34:52.091Z,98247.91
2022-12-05T21:37:21.660Z,98253.78
2022-12-05T21:39:52.400Z,98258.00
2022-12-05T21:42:23.142Z,98254.56
2022-12-05T21:44:54.418Z,98252.84
2022-12-05T21:47:23.452Z,98264.66
2022-12-05T21:49:52.562Z,98257.78
2022-12-05T21:52:21.518Z,98262.03
2022-12-05T21:54:50.929Z,98253.47
2022-12-05T21:57:24.933Z,98255.16
2022-12-05T21:59:56.488Z,98251.72
2022-12-05T22:02:25.927Z,98249.13
2022-12-05T22:04:55.513Z,98238.13
2022-12-05T22:07:24.648Z,98231.25
2022-12-05T22:09:54.503Z,98245.63
2022-12-05T22:12:24.697Z,98242.16
2022-12-05T22:14:55.359Z,98223.38
2022-12-05T22:17:25.800Z,98238.72
2022-12-05T22:19:54.685Z,98225.09
2022-12-05T22:22:24.226Z,98240.41
2022-12-05T22:24:53.342Z,98246.31
2022-12-05T22:27:23.747Z,98230.94
2022-12-05T22:29:53.074Z,98252.97
2022-12-05T22:32:24.138Z,98247.00
2022-12-05T22:34:53.303Z,98251.25
2022-12-05T22:37:22.088Z,98249.59
2022-12-05T22:39:50.720Z,98256.28
2022-12-05T22:42:20.236Z,98243.53
2022-12-05T22:44:49.130Z,98242.63
2022-12-05T22:47:18.122Z,98227.22
2022-12-05T22:49:50.110Z,98249.31
2022-12-05T22:52:18.940Z,98251.00
2022-12-05T22:54:48.305Z,98252.66
2022-12-05T22:57:18.217Z,98275.53
2022-12-05T22:59:47.720Z,98252.66
2022-12-05T23:02:20.817Z,98252.72
2022-12-05T23:04:51.452Z,98253.63
2022-12-05T23:07:20.568Z,98255.34
2022-12-05T23:09:49.941Z,98261.28
2022-12-05T23:12:19.369Z,98241.78
2022-12-05T23:14:48.568Z,98250.31
2022-12-05T23:17:18.279Z,98257.19
2022-12-05T23:19:47.835Z,98240.28
2022-12-05T23:22:18.513Z,98245.44
2022-12-05T23:24:47.989Z,98241.16
2022-12-05T23:27:19.487Z,98247.03
2022-12-05T23:29:48.656Z,98249.44
2022-12-05T23:32:20.480Z,98235.88
2022-12-05T23:34:49.933Z,98230.59
2022-12-05T23:37:23.298Z,98230.72
2022-12-05T23:39:52.560Z,98233.28
2022-12-05T23:42:22.103Z,98241.69
2022-12-05T23:44:51.516Z,98230.66
2022-12-05T23:47:21.375Z,98238.31
2022-12-05T23:49:50.806Z,98238.34
2022-12-05T23:52:21.989Z,98234.97
2022-12-05T23:54:51.034Z,98234.13
2022-12-05T23:57:19.925Z,98241.84
2022-12-05T23:59:49.963Z,98233.47
